Burke Lakefront Airport
KBKL : now visible

Airfield :











YOU CAN JOIN US ON...

 
LOGIN :

Register | Disclaimer

   EN    FR    IT 

 









Legend :    VFR   Marginal VFR   IFR   Intensive IFR   Very Intensive IFR
Visi :
Ceiling :
>= 8 km
>= 3000ft
5 to 8 km
1000 to 3000 ft
1500m to 5 km
500 to 1000 ft
800 to 1500m
200 to 500 ft
< 800m
< 200 ft
Symbols :   Thunderstorms  Fog  Heavy snow  Heavy precipitations  Wind > 20 kt






- Airport Elevation : 583 ft
- IATA code : BKL


KBKL - Burke Lakefront

CURRENT METAR :
  • 190853Z 23010KT 10SM FEW026 FEW032 OVC043 00/M04 A3002 RMK AO2 SLP171 60000 T00001039 51006

EXPIRED METARs :
  • 190753Z 25012KT 10SM FEW026 OVC033 01/M04 A3002 RMK AO2 SLP171 T00061039
  • 190713Z 24017G22KT 10SM SCT022 OVC033 01/M04 A3001 RMK AO2 T00061039
  • 190653Z 24014KT 10SM BKN020 OVC026 01/M03 A3001 RMK AO2 SNB05E37 SLP167 P0000 T00061033
  • 190620Z 25013KT 7SM -SN SCT019 BKN026 OVC034 01/M03 A3000 RMK AO2 SNB05 P0000 T00061033
  • 190553Z 25015KT 10SM FEW022 BKN041 OVC070 01/M04 A3000 RMK AO2 SLP164 60000 T00061039 10006 20000 50000

TAF N/A
KZOB FIR / North America



MET'MAP, your aeronautical weather chart ! - Copyright ORBIFLY December 2007 - Disclaimer

ORBIFLY MET'MAP TEAM :

Programming & Development : Alexandra Zaïnal
Concept & original design : Baudouin d'Aumeries
Assistance for programming : Marc-Olivier Méhu
Technical & hardware support : Manuel Goepfert

Contact : metmap@orbifly.com




SOURCES & CREDITS :

   NOAA       Earth
Advisory